Time;durP1;ratioP1;P1;durP2;ratioP2;P2;SDS_P1;SDS_P2;PMS_P1;PMS_P2;Temp;Humidity;BMP_temperature;BMP_pressure;BME280_temperature;BME280_humidity;BME280_pressure;Samples;Min_cycle;Max_cycle;Signal;HPM_P1;HPM_P2
2023/12/15 00:01:15;;;;;;;16.25;6.32;;;6.30;99.90;;;6.05;100.00;102222.38;5200022;28;20517;-49
2023/12/15 00:03:47;;;;;;;15.88;5.97;;;6.20;99.90;;;6.01;100.00;102220.38;5200118;28;20592;-49
2023/12/15 00:06:20;;;;;;;14.63;6.00;;;6.20;99.90;;;5.99;100.00;102220.22;5200859;28;20381;-48
2023/12/15 00:08:54;;;;;;;13.60;6.13;;;6.20;99.90;;;5.97;100.00;102224.41;5201570;28;20060;-48
2023/12/15 00:11:27;;;;;;;13.80;6.07;;;6.20;99.90;;;5.94;100.00;102226.75;5184438;28;20080;-49
2023/12/15 00:13:59;;;;;;;14.52;6.00;;;6.10;99.90;;;5.91;100.00;102229.09;5183010;28;20057;-49
2023/12/15 00:16:32;;;;;;;14.65;6.45;;;6.10;99.90;;;5.89;100.00;102231.53;5183064;28;20508;-49
2023/12/15 00:19:04;;;;;;;13.40;5.40;;;6.10;99.90;;;5.89;100.00;102222.88;5199942;28;20132;-47
2023/12/15 00:21:37;;;;;;;16.85;6.18;;;6.10;99.90;;;5.87;100.00;102227.94;5183335;28;20103;-49
2023/12/15 00:24:11;;;;;;;16.33;6.20;;;6.10;99.90;;;5.86;100.00;102225.22;5199545;28;20586;-49
2023/12/15 00:26:43;;;;;;;15.07;5.85;;;6.10;99.90;;;5.84;100.00;102226.81;5179930;28;20068;-48
2023/12/15 00:29:16;;;;;;;16.77;6.47;;;6.10;99.90;;;5.82;100.00;102223.19;5183016;28;20053;-49
2023/12/15 00:31:48;;;;;;;17.38;6.95;;;6.10;99.90;;;5.80;100.00;102222.16;5163634;28;20081;-49
2023/12/15 00:34:21;;;;;;;15.82;5.75;;;6.10;99.90;;;5.82;100.00;102220.63;5183566;28;20084;-49
2023/12/15 00:36:54;;;;;;;15.07;5.53;;;6.00;99.90;;;5.81;100.00;102224.00;5183146;28;20053;-48
2023/12/15 00:39:31;;;;;;;14.77;6.28;;;6.00;99.90;;;5.81;100.00;102221.41;5181971;28;20492;-49
2023/12/15 00:42:04;;;;;;;19.10;6.93;;;6.00;99.90;;;5.81;100.00;102230.06;5183129;28;20037;-49
2023/12/15 00:44:37;;;;;;;15.38;5.60;;;6.00;99.90;;;5.81;100.00;102222.31;5183365;28;20056;-48
2023/12/15 00:47:10;;;;;;;15.40;5.82;;;6.10;99.90;;;5.84;100.00;102229.38;5184295;28;20144;-49
2023/12/15 00:49:45;;;;;;;18.67;6.50;;;6.00;99.90;;;5.84;100.00;102232.88;5198921;28;20059;-48
2023/12/15 00:52:18;;;;;;;17.58;7.38;;;6.00;99.90;;;5.86;100.00;102241.66;5183084;28;20090;-48
2023/12/15 00:54:52;;;;;;;15.75;5.93;;;6.00;99.90;;;5.87;100.00;102237.41;5181515;28;20041;-48
2023/12/15 00:57:27;;;;;;;17.10;6.57;;;6.10;99.90;;;5.88;100.00;102252.13;5199023;28;20168;-49
2023/12/15 01:00:00;;;;;;;14.80;6.03;;;6.10;99.90;;;5.89;100.00;102252.25;5199235;28;20145;-49
2023/12/15 01:02:32;;;;;;;15.07;6.55;;;6.10;99.90;;;5.90;100.00;102253.16;5183979;28;20184;-49
2023/12/15 01:05:06;;;;;;;15.60;5.97;;;6.10;99.90;;;5.91;100.00;102250.72;5203775;28;20045;-48
2023/12/15 01:07:41;;;;;;;18.10;5.82;;;6.10;99.90;;;5.93;100.00;102258.56;5186725;28;20148;-49
2023/12/15 01:10:15;;;;;;;17.63;6.82;;;6.10;99.90;;;5.95;100.00;102264.81;5185053;28;20053;-49
2023/12/15 01:12:48;;;;;;;17.00;6.47;;;6.10;99.90;;;5.92;100.00;102272.31;5186463;28;20049;-49
2023/12/15 01:15:20;;;;;;;15.95;7.40;;;6.10;99.90;;;5.93;100.00;102264.69;5186103;28;20719;-49
2023/12/15 01:17:53;;;;;;;15.70;5.57;;;6.10;99.90;;;5.96;100.00;102271.78;5183038;28;20107;-48
2023/12/15 01:20:25;;;;;;;15.15;5.55;;;6.20;99.90;;;5.97;100.00;102271.88;5177271;28;20057;-49
2023/12/15 01:22:58;;;;;;;12.65;5.22;;;6.20;99.90;;;5.98;100.00;102276.28;5202608;28;20045;-49
2023/12/15 01:25:38;;;;;;;16.10;5.82;;;6.20;99.90;;;6.01;100.00;102283.38;5184227;28;20041;-49
2023/12/15 01:28:10;;;;;;;14.98;6.63;;;6.20;99.90;;;6.02;100.00;102282.59;5185776;28;20056;-49
2023/12/15 01:30:42;;;;;;;15.77;6.05;;;6.20;99.90;;;6.06;100.00;102296.66;5186555;28;20037;-49
2023/12/15 01:33:15;;;;;;;14.05;6.00;;;6.20;99.90;;;6.07;100.00;102293.31;5203050;28;20495;-50
2023/12/15 01:35:47;;;;;;;12.88;5.30;;;6.20;99.90;;;6.08;100.00;102305.47;5206728;28;20528;-48
2023/12/15 01:38:20;;;;;;;14.55;5.15;;;6.30;99.90;;;6.06;100.00;102307.91;5215042;28;20071;-48
2023/12/15 01:40:53;;;;;;;14.35;5.35;;;6.30;99.90;;;6.08;100.00;102318.41;5185560;28;20404;-49
2023/12/15 01:43:29;;;;;;;15.63;6.00;;;6.30;99.90;;;6.08;100.00;102316.72;5185829;28;20057;-48
2023/12/15 01:46:01;;;;;;;15.38;5.75;;;6.30;99.90;;;6.08;100.00;102321.91;5202734;28;20587;-49
2023/12/15 01:48:34;;;;;;;16.60;6.13;;;6.30;99.90;;;6.08;100.00;102315.84;5180977;28;20065;-48
2023/12/15 01:51:07;;;;;;;16.13;6.35;;;6.20;99.90;;;6.08;100.00;102316.72;5180145;28;20046;-48
2023/12/15 01:53:43;;;;;;;14.75;6.15;;;6.30;99.90;;;6.08;100.00;102324.50;5180848;28;20413;-48
2023/12/15 01:56:17;;;;;;;16.02;5.93;;;6.30;99.90;;;6.10;100.00;102314.25;5177859;28;20053;-50
2023/12/15 01:58:50;;;;;;;14.10;5.55;;;6.30;99.90;;;6.13;100.00;102325.75;5172673;28;20046;-48
2023/12/15 02:01:22;;;;;;;12.70;5.97;;;6.30;99.90;;;6.14;100.00;102319.78;5160536;28;20135;-48
2023/12/15 02:03:55;;;;;;;14.25;5.65;;;6.30;99.90;;;6.14;100.00;102312.03;5165191;28;20072;-48
2023/12/15 02:06:27;;;;;;;14.85;5.95;;;6.30;99.90;;;6.13;100.00;102319.66;5165527;28;20060;-48
2023/12/15 02:09:00;;;;;;;17.55;6.45;;;6.30;99.90;;;6.13;100.00;102322.25;5182378;28;20718;-49
2023/12/15 02:11:33;;;;;;;18.85;5.85;;;6.30;99.90;;;6.15;100.00;102331.94;5165050;28;20673;-49
2023/12/15 02:14:06;;;;;;;13.00;5.85;;;6.30;99.90;;;6.13;100.00;102333.53;5178331;28;20057;-49
2023/12/15 02:16:38;;;;;;;16.52;6.43;;;6.30;99.90;;;6.12;100.00;102334.28;5183148;28;20054;-48
2023/12/15 02:19:11;;;;;;;19.33;7.05;;;6.30;99.90;;;6.10;100.00;102334.97;5177264;28;20062;-48
2023/12/15 02:21:46;;;;;;;18.35;6.43;;;6.30;99.90;;;6.07;100.00;102337.34;5159774;28;20046;-49
2023/12/15 02:24:20;;;;;;;18.55;7.07;;;6.30;99.90;;;6.07;100.00;102345.09;5180535;28;20146;-48
2023/12/15 02:26:52;;;;;;;17.05;6.18;;;6.30;99.90;;;6.05;100.00;102347.53;5164469;28;20052;-47
2023/12/15 02:29:26;;;;;;;18.85;6.70;;;6.30;99.90;;;6.05;100.00;102346.66;5178279;28;20046;-48
2023/12/15 02:31:59;;;;;;;17.08;6.65;;;6.30;99.90;;;6.06;100.00;102344.16;5162885;28;20048;-49
2023/12/15 02:34:31;;;;;;;17.52;6.20;;;6.30;99.90;;;6.06;100.00;102344.16;5159259;28;20054;-48
2023/12/15 02:37:03;;;;;;;15.85;6.28;;;6.30;99.90;;;6.08;100.00;102347.81;5164810;28;20045;-48
2023/12/15 02:39:41;;;;;;;14.93;6.13;;;6.30;99.90;;;6.08;100.00;102352.97;5165625;28;20050;-48
2023/12/15 02:42:13;;;;;;;16.77;6.00;;;6.30;99.90;;;6.10;100.00;102345.31;5179327;28;20042;-48
2023/12/15 02:44:47;;;;;;;16.95;6.45;;;6.30;99.90;;;6.10;100.00;102351.41;5164920;28;20056;-49
2023/12/15 02:47:19;;;;;;;13.05;5.65;;;6.30;99.90;;;6.12;100.00;102355.00;5179043;28;20054;-49
2023/12/15 02:49:54;;;;;;;16.70;5.32;;;6.30;99.90;;;6.11;100.00;102347.13;5168556;28;20057;-50
2023/12/15 02:52:26;;;;;;;14.30;5.60;;;6.30;99.90;;;6.11;100.00;102348.03;5164835;28;20539;-49
2023/12/15 02:55:00;;;;;;;14.60;5.47;;;6.30;99.90;;;6.13;100.00;102359.44;5177220;28;20049;-48
2023/12/15 02:57:33;;;;;;;16.40;5.95;;;6.30;99.90;;;6.13;100.00;102355.91;5179406;28;20054;-48
2023/12/15 03:00:07;;;;;;;16.77;6.07;;;6.30;99.90;;;6.14;100.00;102368.09;5164557;28;20073;-49
2023/12/15 03:02:41;;;;;;;15.20;6.18;;;6.30;99.90;;;6.14;100.00;102360.31;5164563;28;20064;-49
2023/12/15 03:05:13;;;;;;;17.63;6.07;;;6.30;99.90;;;6.15;100.00;102365.63;5164395;28;20062;-49
2023/12/15 03:07:46;;;;;;;16.60;5.78;;;6.30;99.90;;;6.16;100.00;102363.94;5165027;28;20509;-49
2023/12/15 03:10:19;;;;;;;14.85;5.68;;;6.40;99.90;;;6.20;100.00;102365.97;5180378;28;20418;-49
2023/12/15 03:12:52;;;;;;;17.90;6.53;;;6.40;99.90;;;6.21;100.00;102354.84;5164617;28;20050;-49
2023/12/15 03:15:26;;;;;;;16.10;5.63;;;6.40;99.90;;;6.22;100.00;102360.13;5163714;28;20045;-49
2023/12/15 03:18:01;;;;;;;15.50;5.07;;;6.40;99.90;;;6.20;100.00;102359.13;5163430;28;20046;-49
2023/12/15 03:20:33;;;;;;;15.38;5.63;;;6.40;99.90;;;6.22;100.00;102360.13;5178367;28;20053;-48
2023/12/15 03:23:06;;;;;;;19.17;6.55;;;6.30;99.90;;;6.22;100.00;102356.63;5180062;28;20061;-49
2023/12/15 03:25:43;;;;;;;16.25;6.35;;;6.40;99.90;;;6.19;100.00;102357.31;5160019;28;20050;-48
2023/12/15 03:28:16;;;;;;;16.10;6.15;;;6.40;99.90;;;6.17;100.00;102369.22;5163986;28;20045;-50
2023/12/15 03:30:48;;;;;;;16.33;5.95;;;6.40;99.90;;;6.17;100.00;102373.50;5181373;28;20489;-49
2023/12/15 03:33:22;;;;;;;17.88;6.75;;;6.40;99.90;;;6.18;100.00;102381.38;5163678;28;20062;-49
2023/12/15 03:35:54;;;;;;;16.95;6.35;;;6.40;99.90;;;6.19;100.00;102366.75;5163897;28;20045;-49
2023/12/15 03:38:26;;;;;;;16.88;6.68;;;6.40;99.90;;;6.19;100.00;102375.44;5162992;28;20541;-49
2023/12/15 03:41:00;;;;;;;17.75;6.85;;;6.40;99.90;;;6.19;100.00;102383.22;5180614;28;20414;-49
2023/12/15 03:43:33;;;;;;;18.65;7.55;;;6.40;99.90;;;6.15;100.00;102381.16;5163056;28;20144;-49
2023/12/15 03:46:06;;;;;;;17.75;5.88;;;6.40;99.90;;;6.15;100.00;102383.75;5162802;28;20394;-49
2023/12/15 03:48:38;;;;;;;18.05;7.25;;;6.40;99.90;;;6.13;100.00;102377.56;5162841;28;20057;-49
2023/12/15 03:51:10;;;;;;;14.77;6.30;;;6.30;99.90;;;6.14;100.00;102384.53;5180381;28;20046;-50
2023/12/15 03:53:46;;;;;;;17.30;7.15;;;6.30;99.90;;;6.14;100.00;102392.31;5162748;28;20060;-48
2023/12/15 03:56:26;;;;;;;16.05;5.45;;;6.30;99.90;;;6.15;100.00;102391.50;5164067;28;20053;-48
2023/12/15 03:59:00;;;;;;;13.70;6.07;;;6.40;99.90;;;6.14;100.00;102394.88;5174209;28;20053;-49
2023/12/15 04:01:32;;;;;;;16.02;5.68;;;6.40;99.90;;;6.18;100.00;102396.00;5159751;28;20045;-49
2023/12/15 04:04:05;;;;;;;14.75;5.65;;;6.40;99.90;;;6.20;100.00;102394.47;5174596;28;20044;-49
2023/12/15 04:06:37;;;;;;;14.52;5.72;;;6.40;99.90;;;6.21;100.00;102398.84;5177249;28;20067;-48
2023/12/15 04:09:10;;;;;;;16.00;5.22;;;6.40;99.90;;;6.22;100.00;102406.72;5163464;28;20046;-49
2023/12/15 04:11:46;;;;;;;17.00;6.22;;;6.40;99.90;;;6.23;100.00;102410.22;5180618;28;20042;-49
2023/12/15 04:14:19;;;;;;;13.50;5.70;;;6.40;99.90;;;6.23;100.00;102411.13;5163062;28;20045;-49
2023/12/15 04:16:52;;;;;;;16.00;5.78;;;6.40;99.90;;;6.28;100.00;102423.53;5180143;28;20117;-51
2023/12/15 04:19:24;;;;;;;16.38;5.85;;;6.40;99.90;;;6.28;100.00;102418.38;5159496;28;20509;-48
2023/12/15 04:21:57;;;;;;;15.55;6.05;;;6.50;99.90;;;6.28;100.00;102424.44;5170479;28;20049;-48
2023/12/15 04:24:29;;;;;;;14.93;5.88;;;6.40;99.90;;;6.28;100.00;102428.72;5175989;28;20049;-49
2023/12/15 04:27:03;;;;;;;16.00;5.75;;;6.50;99.90;;;6.25;100.00;102427.69;5159587;28;20104;-50
2023/12/15 04:29:35;;;;;;;12.27;4.85;;;6.40;99.90;;;6.27;100.00;102437.28;5161094;28;20050;-48
2023/12/15 04:32:08;;;;;;;17.48;5.65;;;6.50;99.90;;;6.29;100.00;102435.72;5171086;28;20044;-49
2023/12/15 04:34:41;;;;;;;14.60;5.97;;;6.50;99.90;;;6.32;100.00;102441.09;5166733;28;20058;-49
2023/12/15 04:37:13;;;;;;;13.70;5.15;;;6.50;99.90;;;6.34;100.00;102440.47;5180089;28;20046;-49
2023/12/15 04:39:46;;;;;;;14.48;5.55;;;6.50;99.90;;;6.35;100.00;102443.97;5161743;28;20053;-49
2023/12/15 04:42:20;;;;;;;13.13;5.85;;;6.50;99.90;;;6.37;100.00;102455.31;5162896;28;20046;-48
2023/12/15 04:44:52;;;;;;;14.82;5.47;;;6.50;99.90;;;6.39;100.00;102448.56;5163073;28;20052;-48
2023/12/15 04:47:25;;;;;;;12.93;4.93;;;6.50;99.90;;;6.40;100.00;102453.00;5160423;28;20077;-47
2023/12/15 04:49:57;;;;;;;14.55;5.38;;;6.60;99.90;;;6.42;100.00;102459.19;5155476;28;20420;-47
2023/12/15 04:52:29;;;;;;;14.05;5.47;;;6.60;99.90;;;6.40;100.00;102460.78;5159990;28;20046;-47
2023/12/15 04:55:02;;;;;;;11.82;4.90;;;6.60;99.90;;;6.43;100.00;102466.16;5166911;28;20046;-50
2023/12/15 04:57:36;;;;;;;13.52;4.95;;;6.60;99.90;;;6.44;100.00;102467.97;5176883;28;20108;-49
2023/12/15 05:00:13;;;;;;;13.13;5.10;;;6.60;99.90;;;6.44;100.00;102458.50;5164202;28;20387;-49
2023/12/15 05:02:45;;;;;;;15.48;6.35;;;6.60;99.90;;;6.44;100.00;102471.47;5163874;28;20042;-48
2023/12/15 05:05:18;;;;;;;16.65;5.13;;;6.60;99.90;;;6.44;100.00;102467.97;5176763;28;20050;-48
2023/12/15 05:07:51;;;;;;;13.98;5.13;;;6.60;99.90;;;6.44;100.00;102462.78;5162370;28;20049;-47
2023/12/15 05:10:23;;;;;;;14.23;5.68;;;6.60;99.90;;;6.43;100.00;102463.59;5159587;28;20058;-48
2023/12/15 05:12:57;;;;;;;14.32;5.38;;;6.60;99.90;;;6.42;100.00;102464.38;5192343;28;20049;-48
2023/12/15 05:15:29;;;;;;;12.85;5.00;;;6.60;99.90;;;6.43;100.00;102464.47;5159589;28;20056;-48
2023/12/15 05:18:02;;;;;;;15.95;5.15;;;6.60;99.90;;;6.45;100.00;102469.78;5147863;28;20046;-48
2023/12/15 05:20:36;;;;;;;13.93;6.03;;;6.60;99.90;;;6.44;100.00;102473.16;5163960;28;20046;-49
2023/12/15 05:23:08;;;;;;;15.02;5.80;;;6.60;99.90;;;6.43;100.00;102471.34;5158947;28;20045;-48
2023/12/15 05:25:41;;;;;;;16.23;5.97;;;6.70;99.90;;;6.45;100.00;102472.38;5162905;28;20124;-49
2023/12/15 05:28:15;;;;;;;13.25;5.25;;;6.60;99.90;;;6.46;100.00;102466.44;5159385;28;20108;-48
2023/12/15 05:30:47;;;;;;;13.80;4.85;;;6.60;99.90;;;6.48;100.00;102480.41;5157833;28;20516;-50
2023/12/15 05:33:20;;;;;;;11.18;4.40;;;6.60;99.90;;;6.50;100.00;102478.81;5179612;28;20778;-47
2023/12/15 05:35:52;;;;;;;14.30;5.10;;;6.70;99.90;;;6.50;100.00;102479.72;5186772;28;20145;-47
2023/12/15 05:38:24;;;;;;;13.57;5.75;;;6.70;99.90;;;6.51;100.00;102481.53;5163568;28;20057;-49
2023/12/15 05:40:57;;;;;;;15.15;5.95;;;6.70;99.90;;;6.48;100.00;102475.22;5168747;28;20054;-48
2023/12/15 05:43:31;;;;;;;15.02;5.75;;;6.70;99.90;;;6.48;100.00;102481.28;5161878;28;20057;-50
2023/12/15 05:46:03;;;;;;;14.32;5.85;;;6.70;99.90;;;6.47;100.00;102488.97;5158005;28;20133;-48
2023/12/15 05:48:35;;;;;;;13.60;5.82;;;6.60;99.90;;;6.44;100.00;102483.50;5171638;28;20417;-48
2023/12/15 05:51:09;;;;;;;14.32;5.43;;;6.60;99.90;;;6.43;100.00;102492.06;5181877;28;20045;-50
2023/12/15 05:53:42;;;;;;;15.88;5.32;;;6.60;99.90;;;6.44;100.00;102504.25;5180748;28;20058;-49
2023/12/15 05:56:14;;;;;;;14.57;5.78;;;6.60;99.90;;;6.46;100.00;102494.94;5167373;28;20049;-49
2023/12/15 05:58:49;;;;;;;14.25;6.07;;;6.60;99.90;;;6.45;100.00;102494.00;5161926;28;20521;-55
2023/12/15 06:01:21;;;;;;;14.93;5.72;;;6.60;99.90;;;6.45;100.00;102498.28;5182245;28;20056;-53
2023/12/15 06:03:53;;;;;;;12.63;4.72;;;6.60;99.90;;;6.46;100.00;102502.69;5164943;28;20057;-51
2023/12/15 06:06:26;;;;;;;13.15;5.53;;;6.60;99.90;;;6.45;100.00;102511.22;5165832;28;20053;-52
2023/12/15 06:08:58;;;;;;;13.15;5.45;;;6.60;99.90;;;6.45;100.00;102511.22;5165209;28;20045;-48
2023/12/15 06:11:31;;;;;;;13.45;6.15;;;6.60;99.90;;;6.44;100.00;102517.19;5157950;28;20054;-50
2023/12/15 06:14:04;;;;;;;14.15;5.40;;;6.60;99.90;;;6.44;100.00;102519.78;5181489;28;20042;-49
2023/12/15 06:16:37;;;;;;;14.02;4.95;;;6.60;99.90;;;6.46;100.00;102523.44;5165013;28;20065;-51
2023/12/15 06:19:09;;;;;;;16.02;5.57;;;6.60;99.90;;;6.48;100.00;102532.22;5163839;28;20050;-50
2023/12/15 06:21:42;;;;;;;10.95;4.95;;;6.70;99.90;;;6.50;100.00;102520.28;5160534;28;20062;-53
2023/12/15 06:24:17;;;;;;;16.38;5.03;;;6.70;99.90;;;6.49;100.00;102523.66;5162939;28;20050;-52
2023/12/15 06:26:50;;;;;;;13.13;5.63;;;6.60;99.90;;;6.47;100.00;102526.13;5178709;28;20567;-52
2023/12/15 06:29:23;;;;;;;14.68;5.80;;;6.70;99.90;;;6.45;100.00;102526.78;5185868;28;20061;-52
2023/12/15 06:31:56;;;;;;;13.15;5.30;;;6.60;99.90;;;6.45;100.00;102526.78;5178897;28;20077;-50
2023/12/15 06:34:28;;;;;;;12.68;5.10;;;6.70;99.90;;;6.48;100.00;102538.28;5164635;28;20053;-54
2023/12/15 06:37:01;;;;;;;13.55;5.00;;;6.70;99.90;;;6.49;100.00;102544.38;5163929;28;20056;-52
2023/12/15 06:39:33;;;;;;;10.00;4.60;;;6.60;99.90;;;6.49;100.00;102544.38;5165199;28;20046;-53
2023/12/15 06:42:06;;;;;;;12.52;5.28;;;6.70;99.90;;;6.50;100.00;102544.50;5161731;28;20042;-52
2023/12/15 06:44:40;;;;;;;13.02;4.70;;;6.70;99.90;;;6.50;100.00;102547.09;5179488;28;20710;-56
2023/12/15 06:47:13;;;;;;;13.30;4.82;;;6.70;99.90;;;6.53;100.00;102549.94;5163728;28;20074;-54
2023/12/15 06:49:45;;;;;;;12.15;4.68;;;6.70;99.90;;;6.53;100.00;102544.75;5158276;28;20072;-51
2023/12/15 06:52:20;;;;;;;12.27;4.55;;;6.70;99.90;;;6.54;100.00;102548.25;5181164;28;20057;-49
2023/12/15 06:54:53;;;;;;;13.57;5.07;;;6.70;99.90;;;6.56;100.00;102557.03;5163953;28;20053;-54
2023/12/15 06:57:25;;;;;;;12.85;5.00;;;6.70;99.90;;;6.57;100.00;102558.84;5165434;28;20056;-52
2023/12/15 06:59:59;;;;;;;14.15;5.20;;;6.70;99.90;;;6.60;100.00;102556.50;5163811;28;20073;-50
2023/12/15 07:02:31;;;;;;;11.95;4.80;;;6.80;99.90;;;6.61;100.00;102566.06;5181533;28;20421;-54
2023/12/15 07:05:04;;;;;;;15.20;4.80;;;6.80;99.90;;;6.62;100.00;102573.06;5173415;28;20041;-51
2023/12/15 07:07:36;;;;;;;13.90;4.95;;;6.80;99.90;;;6.64;100.00;102576.66;5164657;28;20380;-49
2023/12/15 07:10:09;;;;;;;14.27;5.32;;;6.80;99.90;;;6.64;100.00;102587.03;5161452;28;20053;-49
2023/12/15 07:12:41;;;;;;;12.65;4.88;;;6.80;99.90;;;6.62;100.00;102586.03;5164853;28;20053;-54
2023/12/15 07:15:16;;;;;;;13.98;5.10;;;6.80;99.90;;;6.62;100.00;102583.44;5163524;28;20046;-50
2023/12/15 07:17:48;;;;;;;14.88;5.25;;;6.80;99.90;;;6.62;100.00;102585.13;5163864;28;20046;-51
2023/12/15 07:20:21;;;;;;;14.43;5.47;;;6.80;99.90;;;6.61;100.00;102591.09;5181037;28;20061;-52
2023/12/15 07:22:53;;;;;;;12.85;4.95;;;6.80;99.90;;;6.61;100.00;102610.13;5163077;28;20050;-49
2023/12/15 07:25:25;;;;;;;12.90;5.10;;;6.80;99.90;;;6.62;100.00;102609.34;5163859;28;20050;-49
2023/12/15 07:27:58;;;;;;;13.27;5.53;;;6.80;99.90;;;6.63;100.00;102607.66;5163142;28;20049;-49
2023/12/15 07:30:35;;;;;;;12.23;5.10;;;6.80;99.90;;;6.63;100.00;102615.44;5175647;28;20054;-51
2023/12/15 07:33:08;;;;;;;15.05;5.72;;;6.80;99.90;;;6.62;100.00;102624.91;5173882;28;20056;-49
2023/12/15 07:35:41;;;;;;;12.63;5.57;;;6.80;99.90;;;6.62;100.00;102634.38;5163857;28;20054;-52
2023/12/15 07:38:16;;;;;;;10.90;4.60;;;6.80;99.90;;;6.64;100.00;102628.50;5179665;28;20084;-51
2023/12/15 07:40:53;;;;;;;11.32;4.78;;;6.80;99.90;;;6.65;100.00;102640.72;5162806;28;20056;-54
2023/12/15 07:43:26;;;;;;;13.15;5.13;;;6.80;99.90;;;6.67;100.00;102636.53;5162814;28;20050;-51
2023/12/15 07:46:00;;;;;;;13.10;4.85;;;6.80;99.90;;;6.69;100.00;102627.19;5163362;28;20056;-49
2023/12/15 07:48:32;;;;;;;10.30;4.43;;;6.80;99.90;;;6.71;100.00;102635.09;5152868;28;20054;-50
2023/12/15 07:51:05;;;;;;;11.98;4.43;;;6.90;99.90;;;6.72;100.00;102627.44;5161421;28;20057;-50
2023/12/15 07:53:37;;;;;;;13.02;5.00;;;6.90;99.90;;;6.73;100.00;102634.44;5162982;28;20057;-50
2023/12/15 07:56:19;;;;;;;12.32;5.10;;;6.90;99.90;;;6.75;100.00;102634.56;5162730;28;20588;-52
2023/12/15 07:58:52;;;;;;;;;;;6.90;99.90;;;6.77;100.00;102641.66;5163350;28;20598;-52
2023/12/15 08:01:26;;;;;;;14.55;4.45;;;6.90;99.90;;;6.80;100.00;102647.09;5179117;28;20304;-52
2023/12/15 08:03:58;;;;;;;11.20;4.65;;;6.90;99.90;;;6.81;100.00;102648.00;5161962;28;20452;-51
2023/12/15 08:06:30;;;;;;;11.15;4.30;;;6.90;99.90;;;6.86;100.00;102643.19;5163185;28;20052;-51
2023/12/15 08:09:03;;;;;;;11.32;4.65;;;7.00;99.90;;;6.90;100.00;102653.00;5163201;28;20049;-53
2023/12/15 08:11:35;;;;;;;10.18;4.18;;;7.00;99.90;;;6.91;100.00;102654.81;5162526;28;20049;-49
2023/12/15 08:14:07;;;;;;;9.75;4.30;;;7.00;99.90;;;6.93;100.00;102650.66;5161766;28;20723;-49
2023/12/15 08:16:41;;;;;;;13.15;4.78;;;7.10;99.90;;;6.95;100.00;102659.47;5162678;28;20133;-53
2023/12/15 08:19:13;;;;;;;9.13;4.07;;;7.10;99.90;;;6.96;100.00;102659.56;5152202;28;20061;-49
2023/12/15 08:21:49;;;;;;;10.57;4.25;;;7.10;99.90;;;6.97;100.00;102658.78;5174555;28;20061;-55
2023/12/15 08:24:24;;;;;;;11.50;5.07;;;7.10;99.90;;;7.00;100.00;102661.63;5163494;28;20053;-50
2023/12/15 08:26:57;;;;;;;8.13;3.20;;;7.10;99.90;;;7.29;100.00;102668.19;5173597;28;20050;-50
2023/12/15 08:29:30;;;;;;;13.48;4.78;;;7.40;99.90;;;7.80;100.00;102668.69;5174313;28;20579;-47
2023/12/15 08:32:05;;;;;;;13.25;4.50;;;7.80;99.90;;;7.86;100.00;102670.84;5160432;28;20505;-47
2023/12/15 08:34:42;;;;;;;13.65;5.10;;;7.90;99.90;;;7.95;100.00;102679.31;5158902;28;20469;-47
2023/12/15 08:37:14;;;;;;;11.48;4.50;;;8.10;99.90;;;8.06;100.00;102687.91;5171092;28;20077;-47
2023/12/15 08:39:47;;;;;;;10.85;4.55;;;8.20;99.90;;;8.13;100.00;102685.88;5163062;28;20053;-54
2023/12/15 08:42:19;;;;;;;10.15;4.47;;;8.30;99.90;;;8.05;100.00;102699.09;5179952;28;20405;-51
2023/12/15 08:44:51;;;;;;;10.55;4.70;;;8.30;99.90;;;7.99;100.00;102712.53;5161787;28;20053;-50
2023/12/15 08:47:25;;;;;;;9.75;4.03;;;8.20;99.90;;;7.91;100.00;102717.94;5183316;28;20069;-50
2023/12/15 08:49:58;;;;;;;9.80;4.32;;;8.10;99.90;;;7.81;100.00;102706.84;5162302;28;20469;-52
2023/12/15 08:52:30;;;;;;;12.27;4.35;;;8.00;99.90;;;7.75;100.00;102718.44;5158852;28;20050;-51
2023/12/15 08:55:03;;;;;;;10.02;4.13;;;7.90;99.90;;;7.70;100.00;102718.13;5153066;28;20050;-50
2023/12/15 08:57:36;;;;;;;10.93;4.57;;;7.90;99.90;;;7.67;100.00;102723.06;5174542;28;20124;-53
2023/12/15 09:00:10;;;;;;;12.43;4.30;;;7.80;99.90;;;7.63;100.00;102726.22;5173068;28;20054;-50
2023/12/15 09:02:43;;;;;;;13.52;4.03;;;7.80;99.90;;;7.60;100.00;102736.34;5179490;28;20064;-51
2023/12/15 09:05:16;;;;;;;10.10;4.00;;;7.70;99.90;;;7.57;100.00;102733.53;5143978;28;20058;-52
2023/12/15 09:07:48;;;;;;;10.20;4.60;;;7.70;99.90;;;7.56;100.00;102734.28;5177013;28;20052;-50
2023/12/15 09:10:22;;;;;;;12.35;4.97;;;7.70;99.90;;;7.56;100.00;102747.28;5163428;28;20137;-50
2023/12/15 09:12:55;;;;;;;10.52;4.32;;;7.70;99.90;;;7.56;100.00;102758.59;5170748;28;20057;-49
2023/12/15 09:15:27;;;;;;;10.88;4.95;;;7.70;99.90;;;7.54;100.00;102767.03;5180179;28;20064;-50
2023/12/15 09:18:01;;;;;;;12.35;4.68;;;7.70;99.90;;;7.52;100.00;102763.41;5162846;28;20157;-48
2023/12/15 09:20:37;;;;;;;11.18;4.38;;;7.70;99.90;;;7.55;100.00;102771.41;5173263;28;20066;-49
2023/12/15 09:23:10;;;;;;;10.80;4.25;;;7.70;99.90;;;7.57;100.00;102788.03;5146688;28;20057;-49
2023/12/15 09:25:42;;;;;;;9.80;3.40;;;7.70;99.90;;;7.59;100.00;102789.06;5167434;28;20072;-53
2023/12/15 09:28:15;;;;;;;8.50;3.85;;;7.70;99.90;;;7.62;100.00;102789.28;5150934;28;20436;-50
2023/12/15 09:30:48;;;;;;;9.70;4.05;;;7.70;99.90;;;7.62;100.00;102787.59;5159217;28;20058;-51
2023/12/15 09:33:21;;;;;;;13.05;3.90;;;7.70;99.90;;;7.63;100.00;102798.91;5159094;28;20061;-50
2023/12/15 09:35:55;;;;;;;10.70;4.45;;;7.70;99.90;;;7.64;100.00;102805.00;5157715;28;20057;-49
2023/12/15 09:38:27;;;;;;;9.88;4.05;;;7.70;99.90;;;7.66;100.00;102806.91;5159189;28;20127;-50
2023/12/15 09:41:00;;;;;;;11.32;4.32;;;7.70;99.90;;;7.66;100.00;102804.31;5163602;28;20100;-52
2023/12/15 09:43:32;;;;;;;11.65;4.45;;;7.80;99.90;;;7.65;100.00;102807.72;5162133;28;20049;-48
2023/12/15 09:46:06;;;;;;;7.78;3.40;;;7.80;99.90;;;7.67;100.00;102806.13;5154060;28;20060;-50
2023/12/15 09:48:40;;;;;;;12.60;3.88;;;7.80;99.90;;;7.69;100.00;102814.94;5166171;28;20536;-50
2023/12/15 09:51:19;;;;;;;8.95;3.60;;;7.80;99.90;;;7.73;100.00;102805.72;5177345;28;20053;-51
2023/12/15 09:53:53;;;;;;;10.40;3.92;;;7.80;99.90;;;7.75;100.00;102814.50;5163787;28;20517;-50
2023/12/15 09:56:25;;;;;;;8.75;4.20;;;7.90;99.90;;;7.80;100.00;102821.88;5170451;28;20054;-50
2023/12/15 09:58:58;;;;;;;8.00;3.90;;;7.90;99.90;;;7.84;100.00;102823.03;5165414;28;20065;-53
2023/12/15 10:01:31;;;;;;;11.55;4.45;;;7.90;99.90;;;7.87;100.00;102823.25;5178478;28;20042;-50
2023/12/15 10:04:05;;;;;;;8.68;4.07;;;8.00;99.90;;;7.92;100.00;102831.41;5160446;28;20046;-54
2023/12/15 10:06:42;;;;;;;14.00;5.03;;;8.00;99.90;;;7.97;100.00;102840.47;5183141;28;20429;-54
2023/12/15 10:09:16;;;;;;;10.98;4.63;;;8.00;99.90;;;8.01;100.00;102845.09;5163502;28;20058;-51
2023/12/15 10:11:48;;;;;;;12.38;4.35;;;8.10;99.90;;;8.05;100.00;102841.97;5165729;28;20050;-51
2023/12/15 10:14:21;;;;;;;10.05;4.32;;;8.10;99.90;;;8.09;100.00;102846.63;5165674;28;20254;-50
2023/12/15 10:16:54;;;;;;;9.93;4.70;;;8.10;99.90;;;8.10;100.00;102830.25;5158344;28;20046;-54
2023/12/15 10:19:28;;;;;;;13.55;5.35;;;8.20;99.90;;;8.23;100.00;102838.19;5166877;28;20058;-51
2023/12/15 10:22:02;;;;;;;12.82;5.28;;;8.30;99.90;;;8.28;100.00;102842.06;5164614;28;20041;-53
2023/12/15 10:24:36;;;;;;;14.15;5.22;;;8.40;99.90;;;8.26;100.00;102854.00;5160911;28;20061;-51
2023/12/15 10:27:08;;;;;;;12.35;5.68;;;8.40;99.90;;;8.31;100.00;102852.69;5165739;28;20416;-49
2023/12/15 10:29:41;;;;;;;17.27;7.20;;;8.40;99.90;;;8.47;100.00;102859.06;5166252;28;20045;-55
2023/12/15 10:32:14;;;;;;;14.57;6.07;;;8.50;99.90;;;8.45;100.00;102866.75;5179266;28;20053;-51
2023/12/15 10:34:52;;;;;;;15.57;6.35;;;8.60;99.90;;;8.38;100.00;102864.47;5163955;28;20517;-49
2023/12/15 10:37:24;;;;;;;13.43;5.30;;;8.50;99.90;;;8.33;100.00;102866.69;5174236;28;20124;-50